sensor_id;sensor_type;location;lat;lon;timestamp;P1;durP1;ratioP1;P2;durP2;ratioP2
29712;SDS011;16623;53.632;10.016;2022-09-12T00:00:39;6.72;;;3.70;;
29712;SDS011;16623;53.632;10.016;2022-09-12T00:03:05;6.15;;;3.25;;
29712;SDS011;16623;53.632;10.016;2022-09-12T00:05:30;6.25;;;3.33;;
29712;SDS011;16623;53.632;10.016;2022-09-12T00:07:57;5.15;;;3.50;;
29712;SDS011;16623;53.632;10.016;2022-09-12T00:10:23;5.38;;;3.92;;
29712;SDS011;16623;53.632;10.016;2022-09-12T00:12:49;4.95;;;3.60;;
29712;SDS011;16623;53.632;10.016;2022-09-12T00:15:16;5.70;;;3.35;;
29712;SDS011;16623;53.632;10.016;2022-09-12T00:17:41;4.03;;;3.22;;
29712;SDS011;16623;53.632;10.016;2022-09-12T00:20:08;4.50;;;3.38;;
29712;SDS011;16623;53.632;10.016;2022-09-12T00:22:35;7.65;;;3.35;;
29712;SDS011;16623;53.632;10.016;2022-09-12T00:25:02;6.22;;;3.30;;
29712;SDS011;16623;53.632;10.016;2022-09-12T00:27:28;5.20;;;3.42;;
29712;SDS011;16623;53.632;10.016;2022-09-12T00:29:54;5.57;;;3.90;;
29712;SDS011;16623;53.632;10.016;2022-09-12T00:32:19;4.30;;;3.55;;
29712;SDS011;16623;53.632;10.016;2022-09-12T00:34:45;5.05;;;3.17;;
29712;SDS011;16623;53.632;10.016;2022-09-12T00:37:11;5.85;;;3.20;;
29712;SDS011;16623;53.632;10.016;2022-09-12T00:39:37;3.55;;;2.92;;
29712;SDS011;16623;53.632;10.016;2022-09-12T00:42:02;6.38;;;4.05;;
29712;SDS011;16623;53.632;10.016;2022-09-12T00:46:58;3.92;;;3.10;;
29712;SDS011;16623;53.632;10.016;2022-09-12T00:52:34;3.63;;;3.05;;
29712;SDS011;16623;53.632;10.016;2022-09-12T00:55:18;7.53;;;3.78;;
29712;SDS011;16623;53.632;10.016;2022-09-12T00:57:56;4.65;;;3.13;;
29712;SDS011;16623;53.632;10.016;2022-09-12T01:00:28;3.22;;;2.92;;
29712;SDS011;16623;53.632;10.016;2022-09-12T01:02:59;4.32;;;3.42;;
29712;SDS011;16623;53.632;10.016;2022-09-12T01:05:32;5.32;;;3.85;;
29712;SDS011;16623;53.632;10.016;2022-09-12T01:08:01;6.00;;;4.03;;
29712;SDS011;16623;53.632;10.016;2022-09-12T01:10:28;7.82;;;3.90;;
29712;SDS011;16623;53.632;10.016;2022-09-12T01:12:54;4.45;;;3.20;;
29712;SDS011;16623;53.632;10.016;2022-09-12T01:15:21;6.63;;;3.15;;
29712;SDS011;16623;53.632;10.016;2022-09-12T01:23:14;5.50;;;3.55;;
29712;SDS011;16623;53.632;10.016;2022-09-12T01:31:33;4.63;;;3.60;;
29712;SDS011;16623;53.632;10.016;2022-09-12T01:34:34;7.57;;;4.00;;
29712;SDS011;16623;53.632;10.016;2022-09-12T01:37:12;4.72;;;3.92;;
29712;SDS011;16623;53.632;10.016;2022-09-12T01:42:26;5.95;;;3.95;;
29712;SDS011;16623;53.632;10.016;2022-09-12T01:45:15;3.90;;;3.50;;
29712;SDS011;16623;53.632;10.016;2022-09-12T01:47:48;5.18;;;4.63;;
29712;SDS011;16623;53.632;10.016;2022-09-12T01:50:18;4.90;;;3.85;;
29712;SDS011;16623;53.632;10.016;2022-09-12T01:53:03;4.25;;;3.33;;
29712;SDS011;16623;53.632;10.016;2022-09-12T01:55:34;4.82;;;3.80;;
29712;SDS011;16623;53.632;10.016;2022-09-12T01:58:11;6.35;;;3.70;;
29712;SDS011;16623;53.632;10.016;2022-09-12T02:01:08;7.47;;;3.50;;
29712;SDS011;16623;53.632;10.016;2022-09-12T02:03:46;5.85;;;3.80;;
29712;SDS011;16623;53.632;10.016;2022-09-12T02:06:26;6.28;;;3.90;;
29712;SDS011;16623;53.632;10.016;2022-09-12T02:09:13;4.80;;;3.40;;
29712;SDS011;16623;53.632;10.016;2022-09-12T02:11:44;5.07;;;4.00;;
29712;SDS011;16623;53.632;10.016;2022-09-12T02:14:17;4.78;;;3.88;;
29712;SDS011;16623;53.632;10.016;2022-09-12T02:16:52;7.30;;;3.53;;
29712;SDS011;16623;53.632;10.016;2022-09-12T02:19:23;4.60;;;3.90;;
29712;SDS011;16623;53.632;10.016;2022-09-12T02:21:53;7.07;;;3.80;;
29712;SDS011;16623;53.632;10.016;2022-09-12T02:24:22;11.40;;;3.97;;
29712;SDS011;16623;53.632;10.016;2022-09-12T02:27:02;4.72;;;3.67;;
29712;SDS011;16623;53.632;10.016;2022-09-12T02:29:29;4.43;;;3.88;;
29712;SDS011;16623;53.632;10.016;2022-09-12T02:31:58;4.18;;;3.78;;
29712;SDS011;16623;53.632;10.016;2022-09-12T02:34:50;14.75;;;4.63;;
29712;SDS011;16623;53.632;10.016;2022-09-12T02:40:24;5.50;;;3.78;;
29712;SDS011;16623;53.632;10.016;2022-09-12T02:42:49;5.60;;;4.22;;
29712;SDS011;16623;53.632;10.016;2022-09-12T02:45:16;5.07;;;3.72;;
29712;SDS011;16623;53.632;10.016;2022-09-12T02:47:57;6.25;;;3.80;;
29712;SDS011;16623;53.632;10.016;2022-09-12T02:50:28;4.78;;;3.53;;
29712;SDS011;16623;53.632;10.016;2022-09-12T02:52:54;7.40;;;4.68;;
29712;SDS011;16623;53.632;10.016;2022-09-12T02:55:24;4.50;;;4.00;;
29712;SDS011;16623;53.632;10.016;2022-09-12T02:57:52;10.25;;;3.83;;
29712;SDS011;16623;53.632;10.016;2022-09-12T03:00:17;7.57;;;3.67;;
29712;SDS011;16623;53.632;10.016;2022-09-12T03:02:59;4.93;;;3.60;;
29712;SDS011;16623;53.632;10.016;2022-09-12T03:05:49;10.10;;;4.00;;
29712;SDS011;16623;53.632;10.016;2022-09-12T03:11:12;4.47;;;3.80;;
29712;SDS011;16623;53.632;10.016;2022-09-12T03:16:31;6.47;;;4.13;;
29712;SDS011;16623;53.632;10.016;2022-09-12T03:19:08;4.75;;;4.00;;
29712;SDS011;16623;53.632;10.016;2022-09-12T03:22:08;5.28;;;3.85;;
29712;SDS011;16623;53.632;10.016;2022-09-12T03:24:50;4.13;;;3.53;;
29712;SDS011;16623;53.632;10.016;2022-09-12T03:27:25;6.00;;;4.05;;
29712;SDS011;16623;53.632;10.016;2022-09-12T03:29:53;5.03;;;3.90;;
29712;SDS011;16623;53.632;10.016;2022-09-12T03:32:38;5.75;;;4.10;;
29712;SDS011;16623;53.632;10.016;2022-09-12T03:35:07;4.63;;;4.00;;
29712;SDS011;16623;53.632;10.016;2022-09-12T03:37:36;5.68;;;3.95;;
29712;SDS011;16623;53.632;10.016;2022-09-12T03:40:03;5.30;;;3.72;;
29712;SDS011;16623;53.632;10.016;2022-09-12T03:42:30;5.05;;;4.15;;
29712;SDS011;16623;53.632;10.016;2022-09-12T03:44:56;5.82;;;4.00;;
29712;SDS011;16623;53.632;10.016;2022-09-12T03:47:21;8.32;;;4.00;;
29712;SDS011;16623;53.632;10.016;2022-09-12T03:49:47;8.02;;;3.47;;
29712;SDS011;16623;53.632;10.016;2022-09-12T03:52:12;6.55;;;3.75;;
29712;SDS011;16623;53.632;10.016;2022-09-12T03:54:38;5.60;;;3.95;;
29712;SDS011;16623;53.632;10.016;2022-09-12T03:57:03;4.90;;;3.67;;
29712;SDS011;16623;53.632;10.016;2022-09-12T03:59:29;6.50;;;4.25;;
29712;SDS011;16623;53.632;10.016;2022-09-12T04:01:55;4.78;;;4.07;;
29712;SDS011;16623;53.632;10.016;2022-09-12T04:04:21;6.35;;;4.18;;
29712;SDS011;16623;53.632;10.016;2022-09-12T04:06:46;7.63;;;4.10;;
29712;SDS011;16623;53.632;10.016;2022-09-12T04:09:12;5.28;;;4.35;;
29712;SDS011;16623;53.632;10.016;2022-09-12T04:11:38;6.75;;;4.25;;
29712;SDS011;16623;53.632;10.016;2022-09-12T04:14:03;5.18;;;4.68;;
29712;SDS011;16623;53.632;10.016;2022-09-12T04:16:29;5.75;;;4.25;;
29712;SDS011;16623;53.632;10.016;2022-09-12T04:18:55;9.00;;;4.53;;
29712;SDS011;16623;53.632;10.016;2022-09-12T04:21:20;4.80;;;3.97;;
29712;SDS011;16623;53.632;10.016;2022-09-12T04:23:46;5.85;;;4.43;;
29712;SDS011;16623;53.632;10.016;2022-09-12T04:26:12;6.15;;;4.68;;
29712;SDS011;16623;53.632;10.016;2022-09-12T04:28:39;5.15;;;3.92;;
29712;SDS011;16623;53.632;10.016;2022-09-12T04:31:09;7.03;;;4.68;;
29712;SDS011;16623;53.632;10.016;2022-09-12T04:33:42;7.55;;;4.32;;
29712;SDS011;16623;53.632;10.016;2022-09-12T04:36:13;7.97;;;4.90;;
29712;SDS011;16623;53.632;10.016;2022-09-12T04:38:40;5.80;;;4.97;;
29712;SDS011;16623;53.632;10.016;2022-09-12T04:41:14;5.85;;;4.90;;
29712;SDS011;16623;53.632;10.016;2022-09-12T04:43:41;5.53;;;4.88;;
29712;SDS011;16623;53.632;10.016;2022-09-12T04:46:08;6.28;;;4.38;;
29712;SDS011;16623;53.632;10.016;2022-09-12T04:48:35;8.38;;;5.07;;
29712;SDS011;16623;53.632;10.016;2022-09-12T04:51:14;6.10;;;5.40;;
29712;SDS011;16623;53.632;10.016;2022-09-12T04:53:55;9.38;;;5.88;;
29712;SDS011;16623;53.632;10.016;2022-09-12T04:56:24;8.02;;;4.82;;
29712;SDS011;16623;53.632;10.016;2022-09-12T04:58:52;7.78;;;5.63;;
29712;SDS011;16623;53.632;10.016;2022-09-12T05:01:18;8.65;;;5.72;;
29712;SDS011;16623;53.632;10.016;2022-09-12T05:03:45;8.20;;;6.30;;
29712;SDS011;16623;53.632;10.016;2022-09-12T05:06:13;8.68;;;7.05;;
29712;SDS011;16623;53.632;10.016;2022-09-12T05:08:41;10.00;;;7.00;;
29712;SDS011;16623;53.632;10.016;2022-09-12T05:11:09;8.20;;;6.47;;
29712;SDS011;16623;53.632;10.016;2022-09-12T05:13:36;10.13;;;7.03;;
29712;SDS011;16623;53.632;10.016;2022-09-12T05:16:03;9.50;;;6.70;;
29712;SDS011;16623;53.632;10.016;2022-09-12T05:18:30;13.45;;;10.15;;
29712;SDS011;16623;53.632;10.016;2022-09-12T05:21:01;20.70;;;11.93;;
29712;SDS011;16623;53.632;10.016;2022-09-12T05:23:28;16.83;;;11.70;;
29712;SDS011;16623;53.632;10.016;2022-09-12T05:25:55;11.73;;;9.43;;
29712;SDS011;16623;53.632;10.016;2022-09-12T05:28:22;13.05;;;9.23;;
29712;SDS011;16623;53.632;10.016;2022-09-12T05:30:58;12.60;;;7.93;;
29712;SDS011;16623;53.632;10.016;2022-09-12T05:33:25;14.68;;;8.57;;
29712;SDS011;16623;53.632;10.016;2022-09-12T05:35:50;14.25;;;8.15;;
29712;SDS011;16623;53.632;10.016;2022-09-12T05:38:17;9.63;;;6.80;;
29712;SDS011;16623;53.632;10.016;2022-09-12T05:40:42;10.55;;;7.88;;
29712;SDS011;16623;53.632;10.016;2022-09-12T05:43:08;10.60;;;7.30;;
29712;SDS011;16623;53.632;10.016;2022-09-12T05:45:36;11.48;;;7.93;;
29712;SDS011;16623;53.632;10.016;2022-09-12T05:48:02;14.82;;;7.53;;
29712;SDS011;16623;53.632;10.016;2022-09-12T05:50:28;20.38;;;8.23;;
29712;SDS011;16623;53.632;10.016;2022-09-12T05:52:53;10.48;;;8.20;;
29712;SDS011;16623;53.632;10.016;2022-09-12T05:55:19;12.25;;;7.68;;
29712;SDS011;16623;53.632;10.016;2022-09-12T05:57:45;7.85;;;6.78;;
29712;SDS011;16623;53.632;10.016;2022-09-12T06:00:12;11.60;;;7.80;;
29712;SDS011;16623;53.632;10.016;2022-09-12T06:02:38;10.63;;;8.00;;
29712;SDS011;16623;53.632;10.016;2022-09-12T06:05:04;14.52;;;8.23;;
29712;SDS011;16623;53.632;10.016;2022-09-12T06:07:30;15.38;;;9.23;;
29712;SDS011;16623;53.632;10.016;2022-09-12T06:09:56;14.60;;;8.82;;
29712;SDS011;16623;53.632;10.016;2022-09-12T06:12:23;13.07;;;8.88;;
29712;SDS011;16623;53.632;10.016;2022-09-12T06:14:51;14.75;;;8.43;;
29712;SDS011;16623;53.632;10.016;2022-09-12T06:17:16;16.38;;;9.20;;
29712;SDS011;16623;53.632;10.016;2022-09-12T06:19:42;14.30;;;9.25;;
29712;SDS011;16623;53.632;10.016;2022-09-12T06:22:09;21.48;;;9.82;;
29712;SDS011;16623;53.632;10.016;2022-09-12T06:24:35;18.75;;;11.18;;
29712;SDS011;16623;53.632;10.016;2022-09-12T06:27:00;13.35;;;8.90;;
29712;SDS011;16623;53.632;10.016;2022-09-12T06:29:26;18.63;;;10.50;;
29712;SDS011;16623;53.632;10.016;2022-09-12T06:31:52;24.50;;;11.02;;
29712;SDS011;16623;53.632;10.016;2022-09-12T06:34:18;17.23;;;10.38;;
29712;SDS011;16623;53.632;10.016;2022-09-12T06:36:47;14.55;;;10.13;;
29712;SDS011;16623;53.632;10.016;2022-09-12T06:39:17;16.33;;;10.80;;
29712;SDS011;16623;53.632;10.016;2022-09-12T06:41:45;15.15;;;10.50;;
29712;SDS011;16623;53.632;10.016;2022-09-12T06:44:13;14.93;;;11.35;;
29712;SDS011;16623;53.632;10.016;2022-09-12T06:46:40;13.82;;;9.98;;
29712;SDS011;16623;53.632;10.016;2022-09-12T06:49:06;12.23;;;10.80;;
29712;SDS011;16623;53.632;10.016;2022-09-12T06:51:32;16.60;;;10.82;;
29712;SDS011;16623;53.632;10.016;2022-09-12T06:54:00;13.18;;;10.27;;
29712;SDS011;16623;53.632;10.016;2022-09-12T06:56:26;13.10;;;10.50;;
29712;SDS011;16623;53.632;10.016;2022-09-12T06:58:54;12.93;;;10.27;;
29712;SDS011;16623;53.632;10.016;2022-09-12T07:01:21;16.48;;;9.88;;
29712;SDS011;16623;53.632;10.016;2022-09-12T07:03:52;13.35;;;10.45;;
29712;SDS011;16623;53.632;10.016;2022-09-12T07:06:20;19.65;;;10.70;;
29712;SDS011;16623;53.632;10.016;2022-09-12T07:08:48;17.05;;;10.88;;
29712;SDS011;16623;53.632;10.016;2022-09-12T07:11:18;13.07;;;10.20;;
29712;SDS011;16623;53.632;10.016;2022-09-12T07:13:46;18.75;;;9.35;;
29712;SDS011;16623;53.632;10.016;2022-09-12T07:16:14;18.75;;;9.65;;
29712;SDS011;16623;53.632;10.016;2022-09-12T07:18:40;13.27;;;10.00;;
29712;SDS011;16623;53.632;10.016;2022-09-12T07:21:09;13.45;;;9.93;;
29712;SDS011;16623;53.632;10.016;2022-09-12T07:23:37;16.05;;;9.02;;
29712;SDS011;16623;53.632;10.016;2022-09-12T07:26:04;12.38;;;8.95;;
29712;SDS011;16623;53.632;10.016;2022-09-12T07:28:32;11.95;;;9.80;;
29712;SDS011;16623;53.632;10.016;2022-09-12T07:31:03;12.82;;;8.75;;
29712;SDS011;16623;53.632;10.016;2022-09-12T07:33:40;19.52;;;8.38;;
29712;SDS011;16623;53.632;10.016;2022-09-12T07:36:07;15.35;;;8.65;;
29712;SDS011;16623;53.632;10.016;2022-09-12T07:38:35;11.27;;;8.52;;
29712;SDS011;16623;53.632;10.016;2022-09-12T07:41:23;11.95;;;8.13;;
29712;SDS011;16623;53.632;10.016;2022-09-12T07:43:57;9.32;;;7.32;;
29712;SDS011;16623;53.632;10.016;2022-09-12T07:46:24;12.40;;;6.68;;
29712;SDS011;16623;53.632;10.016;2022-09-12T07:48:55;11.38;;;6.78;;
29712;SDS011;16623;53.632;10.016;2022-09-12T07:51:22;15.40;;;6.53;;
29712;SDS011;16623;53.632;10.016;2022-09-12T07:53:49;9.90;;;6.53;;
29712;SDS011;16623;53.632;10.016;2022-09-12T07:56:15;10.40;;;6.45;;
29712;SDS011;16623;53.632;10.016;2022-09-12T07:58:42;7.28;;;5.35;;
29712;SDS011;16623;53.632;10.016;2022-09-12T08:01:09;8.43;;;5.68;;
29712;SDS011;16623;53.632;10.016;2022-09-12T08:03:43;8.13;;;6.25;;
29712;SDS011;16623;53.632;10.016;2022-09-12T08:06:12;11.85;;;7.35;;
29712;SDS011;16623;53.632;10.016;2022-09-12T08:08:38;8.90;;;6.53;;
29712;SDS011;16623;53.632;10.016;2022-09-12T08:11:05;11.48;;;6.25;;
29712;SDS011;16623;53.632;10.016;2022-09-12T08:13:35;8.88;;;5.68;;
29712;SDS011;16623;53.632;10.016;2022-09-12T08:16:03;6.57;;;5.07;;
29712;SDS011;16623;53.632;10.016;2022-09-12T08:18:36;7.85;;;5.90;;
29712;SDS011;16623;53.632;10.016;2022-09-12T08:21:03;5.95;;;5.30;;
29712;SDS011;16623;53.632;10.016;2022-09-12T08:23:30;7.40;;;5.10;;
29712;SDS011;16623;53.632;10.016;2022-09-12T08:25:57;7.13;;;4.72;;
29712;SDS011;16623;53.632;10.016;2022-09-12T08:28:25;5.68;;;4.45;;
29712;SDS011;16623;53.632;10.016;2022-09-12T08:30:51;5.30;;;4.80;;
29712;SDS011;16623;53.632;10.016;2022-09-12T08:33:18;6.03;;;4.93;;
29712;SDS011;16623;53.632;10.016;2022-09-12T08:35:44;11.20;;;4.43;;
29712;SDS011;16623;53.632;10.016;2022-09-12T08:38:10;8.68;;;5.28;;
29712;SDS011;16623;53.632;10.016;2022-09-12T08:40:42;5.72;;;4.53;;
29712;SDS011;16623;53.632;10.016;2022-09-12T08:43:33;7.93;;;4.70;;
29712;SDS011;16623;53.632;10.016;2022-09-12T08:46:05;6.80;;;4.50;;
29712;SDS011;16623;53.632;10.016;2022-09-12T08:48:37;4.45;;;4.05;;
29712;SDS011;16623;53.632;10.016;2022-09-12T08:51:04;4.70;;;3.03;;
29712;SDS011;16623;53.632;10.016;2022-09-12T08:53:33;3.70;;;3.40;;
29712;SDS011;16623;53.632;10.016;2022-09-12T08:56:00;7.32;;;4.03;;
29712;SDS011;16623;53.632;10.016;2022-09-12T08:58:28;7.60;;;4.15;;
29712;SDS011;16623;53.632;10.016;2022-09-12T09:01:09;4.30;;;3.03;;
29712;SDS011;16623;53.632;10.016;2022-09-12T09:10:17;6.28;;;3.50;;
29712;SDS011;16623;53.632;10.016;2022-09-12T09:18:47;3.42;;;2.78;;
29712;SDS011;16623;53.632;10.016;2022-09-12T09:21:21;3.83;;;2.97;;
29712;SDS011;16623;53.632;10.016;2022-09-12T09:24:07;2.22;;;1.98;;
29712;SDS011;16623;53.632;10.016;2022-09-12T09:26:49;2.30;;;2.08;;
29712;SDS011;16623;53.632;10.016;2022-09-12T09:29:17;4.75;;;3.20;;
29712;SDS011;16623;53.632;10.016;2022-09-12T09:31:48;5.88;;;2.15;;
29712;SDS011;16623;53.632;10.016;2022-09-12T09:34:21;4.07;;;2.40;;
29712;SDS011;16623;53.632;10.016;2022-09-12T09:36:58;3.05;;;2.10;;
29712;SDS011;16623;53.632;10.016;2022-09-12T09:39:35;6.27;;;2.53;;
29712;SDS011;16623;53.632;10.016;2022-09-12T09:42:26;5.55;;;2.25;;
29712;SDS011;16623;53.632;10.016;2022-09-12T09:45:14;6.40;;;1.60;;
29712;SDS011;16623;53.632;10.016;2022-09-12T09:48:00;2.28;;;1.60;;
29712;SDS011;16623;53.632;10.016;2022-09-12T09:50:37;2.55;;;2.00;;
29712;SDS011;16623;53.632;10.016;2022-09-12T09:53:03;2.65;;;2.05;;
29712;SDS011;16623;53.632;10.016;2022-09-12T09:55:32;1.42;;;1.15;;
29712;SDS011;16623;53.632;10.016;2022-09-12T09:58:02;2.10;;;1.20;;
29712;SDS011;16623;53.632;10.016;2022-09-12T10:00:29;3.20;;;1.40;;
29712;SDS011;16623;53.632;10.016;2022-09-12T10:05:27;1.83;;;1.30;;
29712;SDS011;16623;53.632;10.016;2022-09-12T10:07:53;2.80;;;0.93;;
29712;SDS011;16623;53.632;10.016;2022-09-12T10:10:19;2.53;;;1.33;;
29712;SDS011;16623;53.632;10.016;2022-09-12T10:12:47;3.03;;;1.40;;
29712;SDS011;16623;53.632;10.016;2022-09-12T10:17:50;3.25;;;1.73;;
29712;SDS011;16623;53.632;10.016;2022-09-12T10:23:03;4.20;;;1.98;;
29712;SDS011;16623;53.632;10.016;2022-09-12T10:25:46;2.70;;;1.75;;
29712;SDS011;16623;53.632;10.016;2022-09-12T10:28:24;2.95;;;1.80;;
29712;SDS011;16623;53.632;10.016;2022-09-12T10:30:55;2.65;;;1.85;;
29712;SDS011;16623;53.632;10.016;2022-09-12T10:33:21;3.13;;;1.83;;
29712;SDS011;16623;53.632;10.016;2022-09-12T10:35:49;3.00;;;1.58;;
29712;SDS011;16623;53.632;10.016;2022-09-12T10:38:25;4.68;;;2.05;;
29712;SDS011;16623;53.632;10.016;2022-09-12T10:40:59;4.85;;;2.00;;
29712;SDS011;16623;53.632;10.016;2022-09-12T10:43:37;7.10;;;2.13;;
29712;SDS011;16623;53.632;10.016;2022-09-12T10:46:27;6.03;;;2.70;;
29712;SDS011;16623;53.632;10.016;2022-09-12T10:51:37;5.63;;;2.33;;
29712;SDS011;16623;53.632;10.016;2022-09-12T10:54:04;2.83;;;2.28;;
29712;SDS011;16623;53.632;10.016;2022-09-12T10:56:35;6.35;;;2.40;;
29712;SDS011;16623;53.632;10.016;2022-09-12T11:05:19;2.28;;;1.88;;
29712;SDS011;16623;53.632;10.016;2022-09-12T11:08:04;2.92;;;2.15;;
29712;SDS011;16623;53.632;10.016;2022-09-12T11:11:06;4.38;;;1.80;;
29712;SDS011;16623;53.632;10.016;2022-09-12T11:16:34;5.03;;;1.83;;
29712;SDS011;16623;53.632;10.016;2022-09-12T11:21:57;2.03;;;1.77;;
29712;SDS011;16623;53.632;10.016;2022-09-12T11:24:44;2.22;;;1.52;;
29712;SDS011;16623;53.632;10.016;2022-09-12T11:27:38;3.15;;;1.83;;
29712;SDS011;16623;53.632;10.016;2022-09-12T11:30:15;4.45;;;1.65;;
29712;SDS011;16623;53.632;10.016;2022-09-12T11:32:45;2.35;;;1.80;;
29712;SDS011;16623;53.632;10.016;2022-09-12T11:35:37;2.58;;;2.00;;
29712;SDS011;16623;53.632;10.016;2022-09-12T11:38:18;2.00;;;1.50;;
29712;SDS011;16623;53.632;10.016;2022-09-12T11:46:40;1.88;;;1.50;;
29712;SDS011;16623;53.632;10.016;2022-09-12T11:51:56;3.50;;;1.50;;
29712;SDS011;16623;53.632;10.016;2022-09-12T12:00:32;2.08;;;1.92;;
29712;SDS011;16623;53.632;10.016;2022-09-12T12:05:36;4.90;;;1.80;;
29712;SDS011;16623;53.632;10.016;2022-09-12T12:08:29;2.47;;;1.52;;
29712;SDS011;16623;53.632;10.016;2022-09-12T12:10:56;9.40;;;2.28;;
29712;SDS011;16623;53.632;10.016;2022-09-12T12:18:25;2.65;;;1.75;;
29712;SDS011;16623;53.632;10.016;2022-09-12T12:20:53;1.50;;;1.30;;
29712;SDS011;16623;53.632;10.016;2022-09-12T12:23:28;1.80;;;1.38;;
29712;SDS011;16623;53.632;10.016;2022-09-12T12:26:00;3.92;;;2.00;;
29712;SDS011;16623;53.632;10.016;2022-09-12T12:29:09;2.97;;;1.67;;
29712;SDS011;16623;53.632;10.016;2022-09-12T12:31:16;16.77;;;2.15;;
29712;SDS011;16623;53.632;10.016;2022-09-12T12:36:08;2.22;;;1.60;;
29712;SDS011;16623;53.632;10.016;2022-09-12T12:38:52;6.68;;;1.65;;
29712;SDS011;16623;53.632;10.016;2022-09-12T12:43:49;5.38;;;2.00;;
29712;SDS011;16623;53.632;10.016;2022-09-12T12:46:19;2.40;;;1.65;;
29712;SDS011;16623;53.632;10.016;2022-09-12T12:48:59;2.20;;;1.63;;
29712;SDS011;16623;53.632;10.016;2022-09-12T12:54:32;3.08;;;1.45;;
29712;SDS011;16623;53.632;10.016;2022-09-12T12:59:44;4.22;;;1.55;;
29712;SDS011;16623;53.632;10.016;2022-09-12T13:02:36;5.45;;;1.48;;
29712;SDS011;16623;53.632;10.016;2022-09-12T13:05:16;2.00;;;1.80;;
29712;SDS011;16623;53.632;10.016;2022-09-12T13:07:45;3.20;;;1.73;;
29712;SDS011;16623;53.632;10.016;2022-09-12T13:10:21;2.08;;;1.63;;
29712;SDS011;16623;53.632;10.016;2022-09-12T13:12:53;4.47;;;1.77;;
29712;SDS011;16623;53.632;10.016;2022-09-12T13:15:45;1.65;;;1.55;;
29712;SDS011;16623;53.632;10.016;2022-09-12T13:18:13;2.15;;;1.60;;
29712;SDS011;16623;53.632;10.016;2022-09-12T13:20:53;3.63;;;2.25;;
29712;SDS011;16623;53.632;10.016;2022-09-12T13:23:24;2.63;;;1.77;;
29712;SDS011;16623;53.632;10.016;2022-09-12T13:25:55;4.25;;;1.70;;
29712;SDS011;16623;53.632;10.016;2022-09-12T13:31:11;2.45;;;1.58;;
29712;SDS011;16623;53.632;10.016;2022-09-12T13:33:49;2.08;;;1.60;;
29712;SDS011;16623;53.632;10.016;2022-09-12T13:36:33;2.67;;;1.45;;
29712;SDS011;16623;53.632;10.016;2022-09-12T13:41:54;4.55;;;1.90;;
29712;SDS011;16623;53.632;10.016;2022-09-12T13:44:44;3.05;;;1.80;;
29712;SDS011;16623;53.632;10.016;2022-09-12T13:47:18;1.70;;;1.60;;
29712;SDS011;16623;53.632;10.016;2022-09-12T13:49:56;2.63;;;1.75;;
29712;SDS011;16623;53.632;10.016;2022-09-12T13:52:27;3.97;;;1.73;;
29712;SDS011;16623;53.632;10.016;2022-09-12T13:54:56;1.85;;;1.50;;
29712;SDS011;16623;53.632;10.016;2022-09-12T13:57:31;3.85;;;1.45;;
29712;SDS011;16623;53.632;10.016;2022-09-12T14:00:17;4.68;;;2.10;;
29712;SDS011;16623;53.632;10.016;2022-09-12T14:02:43;4.72;;;1.98;;
29712;SDS011;16623;53.632;10.016;2022-09-12T14:05:17;4.00;;;1.95;;
29712;SDS011;16623;53.632;10.016;2022-09-12T14:07:51;2.55;;;1.60;;
29712;SDS011;16623;53.632;10.016;2022-09-12T14:10:27;5.80;;;1.52;;
29712;SDS011;16623;53.632;10.016;2022-09-12T14:12:56;3.42;;;1.70;;
29712;SDS011;16623;53.632;10.016;2022-09-12T14:15:25;2.30;;;1.35;;
29712;SDS011;16623;53.632;10.016;2022-09-12T14:17:53;2.85;;;1.50;;
29712;SDS011;16623;53.632;10.016;2022-09-12T14:20:25;3.38;;;1.88;;
29712;SDS011;16623;53.632;10.016;2022-09-12T14:22:55;7.25;;;2.15;;
29712;SDS011;16623;53.632;10.016;2022-09-12T14:25:25;2.50;;;1.50;;
29712;SDS011;16623;53.632;10.016;2022-09-12T14:27:54;6.85;;;1.58;;
29712;SDS011;16623;53.632;10.016;2022-09-12T14:30:28;2.03;;;1.80;;
29712;SDS011;16623;53.632;10.016;2022-09-12T14:35:41;3.67;;;1.48;;
29712;SDS011;16623;53.632;10.016;2022-09-12T14:40:48;4.85;;;2.20;;
29712;SDS011;16623;53.632;10.016;2022-09-12T14:43:17;4.25;;;1.80;;
29712;SDS011;16623;53.632;10.016;2022-09-12T14:45:54;2.65;;;1.77;;
29712;SDS011;16623;53.632;10.016;2022-09-12T14:48:26;5.85;;;1.90;;
29712;SDS011;16623;53.632;10.016;2022-09-12T14:50:58;7.45;;;2.20;;
29712;SDS011;16623;53.632;10.016;2022-09-12T14:53:30;4.38;;;2.33;;
29712;SDS011;16623;53.632;10.016;2022-09-12T14:56:03;4.05;;;2.03;;
29712;SDS011;16623;53.632;10.016;2022-09-12T14:58:34;2.00;;;1.70;;
29712;SDS011;16623;53.632;10.016;2022-09-12T15:01:01;2.97;;;2.20;;
29712;SDS011;16623;53.632;10.016;2022-09-12T15:05:59;3.35;;;2.10;;
29712;SDS011;16623;53.632;10.016;2022-09-12T15:08:27;3.42;;;2.20;;
29712;SDS011;16623;53.632;10.016;2022-09-12T15:10:53;3.42;;;2.30;;
29712;SDS011;16623;53.632;10.016;2022-09-12T15:13:20;2.90;;;2.13;;
29712;SDS011;16623;53.632;10.016;2022-09-12T15:15:53;3.90;;;2.38;;
29712;SDS011;16623;53.632;10.016;2022-09-12T15:18:21;3.58;;;2.28;;
29712;SDS011;16623;53.632;10.016;2022-09-12T15:20:49;6.40;;;2.00;;
29712;SDS011;16623;53.632;10.016;2022-09-12T15:23:26;3.65;;;1.95;;
29712;SDS011;16623;53.632;10.016;2022-09-12T15:26:04;11.50;;;7.38;;
29712;SDS011;16623;53.632;10.016;2022-09-12T15:28:30;12.43;;;6.00;;
29712;SDS011;16623;53.632;10.016;2022-09-12T15:30:56;4.43;;;2.10;;
29712;SDS011;16623;53.632;10.016;2022-09-12T15:33:28;2.63;;;1.90;;
29712;SDS011;16623;53.632;10.016;2022-09-12T15:35:57;2.13;;;1.75;;
29712;SDS011;16623;53.632;10.016;2022-09-12T15:38:23;4.45;;;2.00;;
29712;SDS011;16623;53.632;10.016;2022-09-12T15:40:49;5.10;;;2.58;;
29712;SDS011;16623;53.632;10.016;2022-09-12T15:43:19;5.70;;;4.40;;
29712;SDS011;16623;53.632;10.016;2022-09-12T15:45:47;4.30;;;2.97;;
29712;SDS011;16623;53.632;10.016;2022-09-12T15:48:15;3.35;;;2.35;;
29712;SDS011;16623;53.632;10.016;2022-09-12T15:50:40;2.30;;;2.10;;
29712;SDS011;16623;53.632;10.016;2022-09-12T15:53:08;4.65;;;2.42;;
29712;SDS011;16623;53.632;10.016;2022-09-12T15:55:39;4.90;;;1.98;;
29712;SDS011;16623;53.632;10.016;2022-09-12T15:58:04;3.90;;;2.88;;
29712;SDS011;16623;53.632;10.016;2022-09-12T16:00:30;4.30;;;2.53;;
29712;SDS011;16623;53.632;10.016;2022-09-12T16:02:55;5.50;;;2.22;;
29712;SDS011;16623;53.632;10.016;2022-09-12T16:05:24;2.83;;;2.13;;
29712;SDS011;16623;53.632;10.016;2022-09-12T16:07:51;6.70;;;3.05;;
29712;SDS011;16623;53.632;10.016;2022-09-12T16:10:19;3.95;;;2.00;;
29712;SDS011;16623;53.632;10.016;2022-09-12T16:12:46;4.45;;;3.17;;
29712;SDS011;16623;53.632;10.016;2022-09-12T16:15:12;5.20;;;2.33;;
29712;SDS011;16623;53.632;10.016;2022-09-12T16:17:39;4.80;;;3.45;;
29712;SDS011;16623;53.632;10.016;2022-09-12T16:20:05;8.68;;;5.15;;
29712;SDS011;16623;53.632;10.016;2022-09-12T16:22:31;3.28;;;2.10;;
29712;SDS011;16623;53.632;10.016;2022-09-12T16:24:57;5.50;;;2.45;;
29712;SDS011;16623;53.632;10.016;2022-09-12T16:27:22;4.10;;;2.20;;
29712;SDS011;16623;53.632;10.016;2022-09-12T16:29:48;3.08;;;2.42;;
29712;SDS011;16623;53.632;10.016;2022-09-12T16:32:15;4.57;;;2.53;;
29712;SDS011;16623;53.632;10.016;2022-09-12T16:34:41;2.60;;;2.25;;
29712;SDS011;16623;53.632;10.016;2022-09-12T16:37:07;2.50;;;2.30;;
29712;SDS011;16623;53.632;10.016;2022-09-12T16:39:33;4.78;;;2.47;;
29712;SDS011;16623;53.632;10.016;2022-09-12T16:42:00;4.18;;;2.80;;